»·PEaware :: N62503 KSBP-KSBA

N62503 :: KSBP-KSBA

FLIGHT INFORMATION

Flight Status: Arrived
Operator: Privately registered:
United States
More flights under this callsign
Pilot: Colin G. (17707)
Aircraft: CESSNA 172 SKYHAWK
(C172)
More flights by this aircraft type
Origin: KSBP San Luis Co Regl
United States
Destination: KSBA Santa Barbara Mun
United States
More flights between these airports :: More routes between these airports
Route: +RZS
File this flight plan on PilotEdge
Remarks:
Altitude:
(Current/Filed)
8,000ft
Speed:
(Current/Filed)
120kts
Departed: 29-Jan-19 11:48 AM
Arrived: 29-Jan-19 12:35 PM
Distance/Time
Traveled:
62nm/0:47
Distance/Time
To Go:
Arrived

Flight Plot

Page will automatically refresh every two minutes.


Map Options




Map Legend


Flown Route
Filed Route
Departure Airport
Arrival Airport
Navaid (VOR, NDB)
Fix

Horizontal Profiles

Position Reports

Time Latitude Longitude Heading Altitude Ground
Speed
29-Jan-19 11:35 35.237816 -120.646770 89 216ft 0kts
29-Jan-19 11:36 35.237816 -120.646770 89 216ft 0kts
29-Jan-19 11:37 35.237816 -120.646770 89 216ft 0kts
29-Jan-19 11:38 35.237816 -120.646770 89 216ft 0kts
29-Jan-19 11:39 35.237816 -120.646770 89 216ft 0kts
29-Jan-19 11:40 35.237816 -120.646770 89 216ft 0kts
29-Jan-19 11:41 35.237816 -120.646610 89 216ft 6kts
29-Jan-19 11:42 35.237718 -120.642922 57 216ft 7kts
29-Jan-19 11:43 35.236292 -120.637278 123 216ft 25kts
29-Jan-19 11:44 35.233121 -120.632330 223 216ft 0kts
29-Jan-19 11:45 35.233121 -120.632330 223 216ft 0kts
29-Jan-19 11:46 35.233121 -120.632330 223 216ft 0kts
29-Jan-19 11:47 35.237090 -120.641262 301 613ft 56kts
29-Jan-19 11:48 35.245302 -120.655327 305 1513ft 63kts
29-Jan-19 11:49 35.257985 -120.676121 305 2345ft 88kts
29-Jan-19 11:50 35.274156 -120.702223 305 3028ft 98kts
29-Jan-19 11:51 35.259568 -120.714115 147 3889ft 105kts
29-Jan-19 11:52 35.239911 -120.695780 145 4829ft 88kts
29-Jan-19 11:53 35.222309 -120.678773 145 5502ft 96kts
29-Jan-19 11:54 35.208152 -120.654601 116 6132ft 104kts
29-Jan-19 11:55 35.196644 -120.625352 116 6792ft 104kts
29-Jan-19 11:56 35.184038 -120.593491 116 7070ft 132kts
29-Jan-19 11:57 35.164337 -120.559053 135 7067ft 138kts
29-Jan-19 11:58 35.140682 -120.530008 136 7070ft 137kts
29-Jan-19 11:59 35.116605 -120.500915 135 7074ft 137kts
29-Jan-19 12:00 35.091917 -120.471124 134 7078ft 137kts
29-Jan-19 12:01 35.067913 -120.442177 133 7081ft 137kts
29-Jan-19 12:02 35.043246 -120.412462 132 7083ft 137kts
29-Jan-19 12:03 35.018415 -120.382568 132 7084ft 136kts
29-Jan-19 12:04 34.993185 -120.352235 132 7084ft 136kts
29-Jan-19 12:05 34.969296 -120.323541 133 7083ft 136kts
29-Jan-19 12:06 34.943413 -120.292475 132 7083ft 136kts
29-Jan-19 12:07 34.917831 -120.261803 132 7083ft 136kts
29-Jan-19 12:08 34.891893 -120.232768 153 7079ft 137kts
29-Jan-19 12:09 34.857578 -120.218650 165 7086ft 136kts
29-Jan-19 12:10 34.822533 -120.205850 157 7093ft 134kts
29-Jan-19 12:11 34.792046 -120.190113 161 7098ft 118kts
29-Jan-19 12:12 34.763019 -120.177124 172 7103ft 115kts
29-Jan-19 12:13 34.733242 -120.169189 173 7107ft 116kts
29-Jan-19 12:14 34.702130 -120.160820 173 7109ft 118kts
29-Jan-19 12:15 34.670469 -120.152366 173 7109ft 118kts
29-Jan-19 12:16 34.638856 -120.144001 173 7109ft 118kts
29-Jan-19 12:17 34.606668 -120.135563 173 7109ft 118kts
29-Jan-19 12:18 34.573502 -120.126948 173 7109ft 118kts
29-Jan-19 12:19 34.539143 -120.118252 173 6754ft 130kts
29-Jan-19 12:20 34.499088 -120.109637 173 5198ft 136kts
29-Jan-19 12:21 34.459716 -120.102716 173 4100ft 110kts
29-Jan-19 12:22 34.425962 -120.097213 173 4074ft 103kts
29-Jan-19 12:23 34.395112 -120.092487 174 4064ft 104kts
29-Jan-19 12:24 34.390578 -120.117276 341 3998ft 114kts
29-Jan-19 12:25 34.407810 -120.098114 71 3945ft 116kts
29-Jan-19 12:26 34.416791 -120.063563 79 2990ft 117kts
29-Jan-19 12:27 34.423132 -120.026879 82 1863ft 111kts
29-Jan-19 12:28 34.421184 -119.992743 95 1284ft 107kts
29-Jan-19 12:29 34.423896 -119.961508 88 1694ft 60kts
29-Jan-19 12:30 34.425558 -119.939613 89 1677ft 64kts
29-Jan-19 12:31 34.425907 -119.917878 98 1126ft 64kts
29-Jan-19 12:32 34.426408 -119.896552 88 780ft 62kts
29-Jan-19 12:33 34.427231 -119.874670 91 456ft 69kts
29-Jan-19 12:34 34.427641 -119.854113 91 14ft 40kts
29-Jan-19 12:35 34.428546 -119.845476 64 14ft 2kts
29-Jan-19 12:36 34.428548 -119.845471 65 14ft 0kts
29-Jan-19 12:37 34.428548 -119.845471 65 14ft 0kts

Navigation Log

Ident Type
Flight plan parsing failed, navigation log unavailable